»·PEaware :: AAL1733 KSNA-KPHX

AAL1733 :: KSNA-KPHX

FLIGHT INFORMATION

Flight Status: Arrived
Operator:
American Airlines
More flights by this operator :: More flights under this callsign
Pilot: Andrew C. (28419)
Aircraft: AIRBUS A319
(A319)
More flights by this aircraft type
Origin: KSNA John Wayne-Orange Co
United States
Destination: KPHX Phoenix Sky Harbor Intl
United States
More flights between these airports :: More routes between these airports
Route: +STAYY3 CNERY BLH HYDRR1
File this flight plan on PilotEdge
Remarks: RMK / SIMBRIEF
Altitude:
(Current/Filed)
35,000ft
Speed:
(Current/Filed)
436kts
Departed: 20-Oct-20 07:32 PM
Arrived: 20-Oct-20 08:27 PM
Distance/Time
Traveled:
294nm/0:55
Distance/Time
To Go:
Arrived

Flight Plot

Page will automatically refresh every two minutes.

Flight plan parsing failed; only flown route is shown


Map Options




Map Legend


Flown Route
Filed Route
Departure Airport
Arrival Airport
Navaid (VOR, NDB)
Fix

Horizontal Profiles

Position Reports

Time Latitude Longitude Heading Altitude Ground
Speed
20-Oct-20 19:05 33.680039 -117.861793 105 64ft 0kts
20-Oct-20 19:06 33.680039 -117.861793 105 64ft 0kts
20-Oct-20 19:07 33.680039 -117.861793 105 64ft 0kts
20-Oct-20 19:08 33.680039 -117.861793 105 64ft 0kts
20-Oct-20 19:09 33.680039 -117.861793 105 64ft 0kts
20-Oct-20 19:10 33.680039 -117.861793 105 64ft 0kts
20-Oct-20 19:11 33.680039 -117.861793 105 64ft 0kts
20-Oct-20 19:12 33.680039 -117.861793 105 64ft 0kts
20-Oct-20 19:13 33.680039 -117.861793 105 64ft 0kts
20-Oct-20 19:14 33.680039 -117.861793 105 64ft 0kts
20-Oct-20 19:15 33.680039 -117.861793 105 64ft 0kts
20-Oct-20 19:16 33.680039 -117.861793 105 64ft 0kts
20-Oct-20 19:17 33.680039 -117.861793 105 64ft 0kts
20-Oct-20 19:18 33.680039 -117.861793 105 64ft 0kts
20-Oct-20 19:19 33.680039 -117.861793 105 64ft 0kts
20-Oct-20 19:20 33.680039 -117.861793 105 64ft 0kts
20-Oct-20 19:21 33.680039 -117.861793 105 64ft 0kts
20-Oct-20 19:22 33.680039 -117.861793 105 64ft 0kts
20-Oct-20 19:23 33.680039 -117.861793 105 64ft 0kts
20-Oct-20 19:24 33.680039 -117.861793 105 64ft 0kts
20-Oct-20 19:25 33.680155 -117.862296 105 64ft 1kts
20-Oct-20 19:26 33.679984 -117.862753 27 64ft 1kts
20-Oct-20 19:27 33.679981 -117.862755 27 64ft 0kts
20-Oct-20 19:28 33.679981 -117.862755 27 64ft 0kts
20-Oct-20 19:29 33.680637 -117.863024 297 64ft 0kts
20-Oct-20 19:30 33.681438 -117.864874 297 64ft 14kts
20-Oct-20 19:31 33.664378 -117.875993 207 704ft 138kts
20-Oct-20 19:32 33.626314 -117.890212 192 3249ft 155kts
20-Oct-20 19:33 33.576464 -117.898878 168 5377ft 216kts
20-Oct-20 19:34 33.515261 -117.862927 140 8283ft 260kts
20-Oct-20 19:35 33.479676 -117.786094 106 11648ft 274kts
20-Oct-20 19:36 33.484820 -117.691901 67 13992ft 305kts
20-Oct-20 19:37 33.527984 -117.599155 58 16672ft 324kts
20-Oct-20 19:38 33.573585 -117.501899 67 19184ft 341kts
20-Oct-20 19:39 33.554141 -117.389228 112 21451ft 357kts
20-Oct-20 19:40 33.517824 -117.275000 112 23537ft 370kts
20-Oct-20 19:41 33.502541 -117.150148 91 25411ft 384kts
20-Oct-20 19:42 33.500519 -117.025169 92 27008ft 395kts
20-Oct-20 19:43 33.497709 -116.890374 92 28508ft 407kts
20-Oct-20 19:44 33.496228 -116.751944 91 29885ft 418kts
20-Oct-20 19:45 33.494531 -116.610456 91 31196ft 426kts
20-Oct-20 19:46 33.492662 -116.465598 91 32378ft 434kts
20-Oct-20 19:47 33.490568 -116.318403 92 33451ft 441kts
20-Oct-20 19:48 33.488250 -116.169531 92 34425ft 447kts
20-Oct-20 19:49 33.495439 -116.019035 79 34817ft 450kts
20-Oct-20 19:50 33.532107 -115.874587 69 34808ft 449kts
20-Oct-20 19:51 33.573970 -115.732508 70 34816ft 448kts
20-Oct-20 19:52 33.609210 -115.588257 80 34833ft 448kts
20-Oct-20 19:53 33.614490 -115.438216 92 34841ft 446kts
20-Oct-20 19:54 33.610280 -115.287501 92 34841ft 446kts
20-Oct-20 19:55 33.606379 -115.137559 92 34840ft 445kts
20-Oct-20 19:56 33.602360 -114.988518 92 34708ft 445kts
20-Oct-20 19:57 33.598196 -114.840775 92 33340ft 434kts
20-Oct-20 19:59 33.584091 -114.698516 104 31792ft 420kts
20-Oct-20 20:00 33.557598 -114.563861 104 30289ft 407kts
20-Oct-20 20:01 33.531896 -114.432731 104 28812ft 396kts
20-Oct-20 20:02 33.506783 -114.304867 104 27361ft 385kts
20-Oct-20 20:03 33.482404 -114.181373 104 25945ft 375kts
20-Oct-20 20:04 33.458394 -114.060728 104 24823ft 369kts
20-Oct-20 20:05 33.434214 -113.940416 104 24814ft 370kts
20-Oct-20 20:06 33.409917 -113.819363 104 24480ft 372kts
20-Oct-20 20:07 33.385874 -113.700311 104 23068ft 360kts
20-Oct-20 20:08 33.362510 -113.585190 103 21635ft 350kts
20-Oct-20 20:09 33.339560 -113.472754 103 20199ft 341kts
20-Oct-20 20:10 33.320237 -113.362977 101 18832ft 331kts
20-Oct-20 20:11 33.301533 -113.254691 101 17433ft 323kts
20-Oct-20 20:12 33.285679 -113.149436 99 16075ft 314kts
20-Oct-20 20:13 33.274658 -113.046761 88 14769ft 305kts
20-Oct-20 20:14 33.277327 -112.945231 88 13478ft 297kts
20-Oct-20 20:14 33.279375 -112.862946 88 12446ft 290kts
20-Oct-20 20:16 33.304368 -112.756838 65 11018ft 282kts
20-Oct-20 20:16 33.331141 -112.685903 65 10267ft 267kts
20-Oct-20 20:18 33.367376 -112.591128 64 8823ft 264kts
20-Oct-20 20:18 33.392659 -112.524765 64 8010ft 251kts
20-Oct-20 20:19 33.419379 -112.450861 66 7309ft 234kts
20-Oct-20 20:20 33.428635 -112.375059 90 6284ft 228kts
20-Oct-20 20:21 33.428558 -112.298691 90 5254ft 226kts
20-Oct-20 20:22 33.439419 -112.224523 84 4190ft 222kts
20-Oct-20 20:23 33.440865 -112.152941 90 3201ft 193kts
20-Oct-20 20:24 33.440817 -112.096117 90 2245ft 142kts
20-Oct-20 20:25 33.440859 -112.049707 90 1546ft 136kts
20-Oct-20 20:26 33.440831 -112.013133 90 1144ft 16kts
20-Oct-20 20:27 33.440179 -112.010838 172 1144ft 0kts
20-Oct-20 20:28 33.439007 -112.008425 88 1144ft 22kts
20-Oct-20 20:29 33.439035 -111.999478 90 1144ft 25kts
20-Oct-20 20:30 33.437200 -111.997453 88 1144ft 3kts
20-Oct-20 20:31 33.437203 -111.997331 88 1144ft 0kts
20-Oct-20 20:32 33.437203 -111.997331 88 1144ft 0kts
20-Oct-20 20:33 33.437203 -111.997331 88 1144ft 0kts
20-Oct-20 20:34 33.437203 -111.997331 88 1144ft 0kts

Navigation Log

Ident Type
Flight plan parsing failed, navigation log unavailable